KMKJKTRI

Guest
Details From KMKJ - MOUNTAIN EMPIRE
To KTRI - Tri Cities Rgnl Tn Va
Flight Number -
Tags generated
Created
Modified
Stats Distance 59 nm / 108 km
Max Altitude 5,700 ft / 1,737 m
Waypoints 3
Social Downloads 0
Likes 0
Share VATSIM

Download

Looking for another format? Having issues loading an existing format? Contact us
Advertisement - Login to hide

Notes

Basic altitude profile: - Ascent Rate: 1000ft/min - Ascent Speed: 95kts - Cruise Altitude: 8500ft - Cruise Speed: 170kts - Descent Rate: 750ft/min - Descent Speed: 145kts Options: - Use NATs: yes - Use PACOTS: yes - Use low airways: yes - Use high airways: yes

Route

KMKJ DAMAS KTRI

ID Type Via Altitude Latitude Longitude Leg Dist Tot Dist Heading (true) Name
O KMKJ APT - 0 ft / 0 m 36.89485˚ -81.34995˚ - 0 nm - MOUNTAIN EMPIRE
DAMAS FIX - 5,700 ft / 1,737 m 36.56303˚ -81.86001˚ 31 nm 31 nm 231° / 231° -
O KTRI APT - 0 ft / 0 m 36.47592˚ -82.40641˚ 26 nm 58 nm 259° / 259° Tri Cities Rgnl Tn Va

Altitude Profile

Advertisement - Login to hide

KMKJ

Details ICAO KMKJ
Name MOUNTAIN EMPIRE
Region United States
Timezone America/New_York (UTC-5.0)
Stats Elevation 2,558 ft / 780 m (AMSL)
Location 36.894849° -81.349946°
Runways 1
Magnetic Variation 7.705° W

METAR

KMKJ 120655Z AUTO 25014G19KT 10SM CLR 05/M03 A2976 RMK AO2 T00451030

Decode

TAF

Not found

Departure Runways

ID Width Length Bearing (true) Bearing (mag) Surface Threshold Offset Overrun Length
08 75 ft / 23 m 5,242 ft / 1,598 m 73.15° 80.86° Asphalt 0 ft / 0 m 0 ft / 0 m
26 75 ft / 23 m 5,242 ft / 1,598 m 253.16° 260.87° Asphalt 0 ft / 0 m 0 ft / 0 m

KTRI

Details ICAO KTRI (TRI)
Name Tri Cities Rgnl Tn Va
Region United States
Timezone America/New_York (UTC-5.0)
Stats Elevation 1,519 ft / 463 m (AMSL)
Location 36.475920° -82.406414°
Runways 2
Magnetic Variation 6.916° W

METAR

KTRI 120653Z 00000KT 10SM BKN140 M01/M01 A2979 RMK AO2 SLP082 T10061011 $

Decode

TAF

KTRI 120521Z 1206/1306 26006KT P6SM BKN150 FM121100 27011KT P6SM -SHSN OVC035 FM121400 28014G24KT P6SM -SHSN OVC025 FM121900 28017G27KT P6SM BKN035 FM130000 28013G20KT P6SM BKN040

Decode

Destination Runways

ID Width Length Bearing (true) Bearing (mag) Surface Threshold Offset Overrun Length
05 151 ft / 46 m 8,002 ft / 2,439 m 42.44° 49.36° Asphalt 0 ft / 0 m 151 ft / 46 m
09 151 ft / 46 m 4,433 ft / 1,351 m 89.03° 95.95° Asphalt 0 ft / 0 m 0 ft / 0 m
23 151 ft / 46 m 8,002 ft / 2,439 m 222.45° 229.37° Asphalt 0 ft / 0 m 98 ft / 30 m
27 151 ft / 46 m 4,433 ft / 1,351 m 269.04° 275.96° Asphalt 0 ft / 0 m 0 ft / 0 m

Approach Navaids

Runway Type Ident Frequency Range Bearing (true) Bearing (mag) Slope Elevation
05 Localiser IBON 111.50 MHz 18 nm / 33 km 42.46° 49.38° - 1,525 ft / 465 m (AMSL)
05 Glidescope IBON 111.50 MHz 10 nm / 19 km 42.44° 49.36° 3.00° 1,519 ft / 463 m (AMSL)
23 Localiser ITRI 109.90 MHz 18 nm / 33 km 222.44° 229.36° - 1,519 ft / 463 m (AMSL)
23 Glidescope ITRI 109.90 MHz 10 nm / 19 km 222.44° 229.36° 3.00° 1,518 ft / 463 m (AMSL)